Observation data for Fluvanna on 06/25/2019      Previous  Date  Next       Current Mesonet Observations  Soil Data  Daily Summary Page  Observations in Plain Language
KFVS 250500Z 17014KT 22/16 A2995 RMK A01 T02180156  RH  071%=      5-min Rain = 0
KFVS 250505Z 17015G20KT 22/16 A2995 RMK A01 T02180155  RH  071%=      5-min Rain = 0
KFVS 250510Z 17015KT 22/15 A2995 RMK A01 T02210151  RH  067%=      5-min Rain = 0
KFVS 250515Z 17012KT 22/15 A2995 RMK A01 T02200150  RH  067%=      5-min Rain = 0
KFVS 250520Z 17013KT 22/15 A2995 RMK A01 T02180149  RH  067%=      5-min Rain = 0
KFVS 250525Z 18011KT 22/15 A2994 RMK A01 T02170147  RH  067%=      5-min Rain = 0
KFVS 250530Z 18010KT 22/15 A2994 RMK A01 T02150147  RH  068%=      5-min Rain = 0
KFVS 250535Z 18012KT 22/15 A2994 RMK A01 T02150147  RH  068%=      5-min Rain = 0
KFVS 250540Z 18011G16KT 21/15 A2993 RMK A01 T02140146  RH  068%=      5-min Rain = 0
KFVS 250545Z 18010KT 21/15 A2994 RMK A01 T02130147  RH  069%=      5-min Rain = 0
KFVS 250550Z 18009KT 21/15 A2994 RMK A01 T02120148  RH  070%=      5-min Rain = 0
KFVS 250555Z 18009KT 21/15 A2993 RMK A01 T02100148  RH  071%=      5-min Rain = 0
KFVS 250600Z 18010KT 21/15 A2993 RMK A01 T02080148  RH  072%=      5-min Rain = 0
KFVS 250605Z 19009KT 21/15 A2993 RMK A01 T02070148  RH  072%=      5-min Rain = 0
KFVS 250610Z 19008KT 21/15 A2993 RMK A01 T02050149  RH  073%=      5-min Rain = 0
KFVS 250615Z 19009KT 21/15 A2993 RMK A01 T02050149  RH  073%=      5-min Rain = 0
KFVS 250620Z 20008KT 20/15 A2993 RMK A01 T02030150  RH  074%=      5-min Rain = 0
KFVS 250625Z 20007KT 20/15 A2993 RMK A01 T02000150  RH  076%=      5-min Rain = 0
KFVS 250630Z 20007KT 20/15 A2993 RMK A01 T01990151  RH  077%=      5-min Rain = 0
KFVS 250635Z 20008KT 20/15 A2993 RMK A01 T01970151  RH  078%=      5-min Rain = 0
KFVS 250640Z 20009KT 20/15 A2993 RMK A01 T01970151  RH  078%=      5-min Rain = 0
KFVS 250645Z 20008KT 20/15 A2993 RMK A01 T01960150  RH  078%=      5-min Rain = 0
KFVS 250650Z 19008KT 20/15 A2994 RMK A01 T01960150  RH  078%=      5-min Rain = 0
KFVS 250655Z 19007KT 19/15 A2993 RMK A01 T01940149  RH  079%=      5-min Rain = 0
KFVS 250700Z 19008KT 19/15 A2993 RMK A01 T01940148  RH  078%=      5-min Rain = 0
KFVS 250705Z 19009KT 19/15 A2993 RMK A01 T01920148  RH  079%=      5-min Rain = 0
KFVS 250710Z 20009KT 19/15 A2994 RMK A01 T01910148  RH  079%=      5-min Rain = 0
KFVS 250715Z 19009KT 19/15 A2994 RMK A01 T01900148  RH  080%=      5-min Rain = 0
KFVS 250720Z 19008KT 19/15 A2994 RMK A01 T01890148  RH  081%=      5-min Rain = 0
KFVS 250725Z 19008KT 19/15 A2994 RMK A01 T01870147  RH  081%=      5-min Rain = 0
KFVS 250730Z 19007KT 19/15 A2994 RMK A01 T01870147  RH  081%=      5-min Rain = 0
KFVS 250735Z 19006KT 19/15 A2994 RMK A01 T01860147  RH  082%=      5-min Rain = 0
KFVS 250740Z 19006KT 18/15 A2994 RMK A01 T01840147  RH  082%=      5-min Rain = 0
KFVS 250745Z 20006KT 18/15 A2994 RMK A01 T01840147  RH  082%=      5-min Rain = 0
KFVS 250750Z 20006KT 18/15 A2994 RMK A01 T01830147  RH  083%=      5-min Rain = 0
KFVS 250755Z 20007KT 18/15 A2994 RMK A01 T01830147  RH  083%=      5-min Rain = 0
KFVS 250800Z 19007KT 18/15 A2994 RMK A01 T01830148  RH  083%=      5-min Rain = 0
KFVS 250805Z 18007KT 18/15 A2995 RMK A01 T01840148  RH  083%=      5-min Rain = 0
KFVS 250810Z 18007KT 19/15 A2995 RMK A01 T01850149  RH  083%=      5-min Rain = 0
KFVS 250815Z 18007KT 18/15 A2995 RMK A01 T01840148  RH  083%=      5-min Rain = 0
KFVS 250820Z 19008KT 18/15 A2995 RMK A01 T01830148  RH  084%=      5-min Rain = 0
KFVS 250825Z 18008KT 18/15 A2995 RMK A01 T01820148  RH  084%=      5-min Rain = 0
KFVS 250830Z 19010KT 18/15 A2995 RMK A01 T01820148  RH  084%=      5-min Rain = 0
KFVS 250835Z 19011KT 18/15 A2994 RMK A01 T01830149  RH  084%=      5-min Rain = 0
KFVS 250840Z 19011KT 18/15 A2994 RMK A01 T01830148  RH  084%=      5-min Rain = 0
KFVS 250845Z 19012KT 18/15 A2995 RMK A01 T01830148  RH  084%=      5-min Rain = 0
KFVS 250850Z 19011KT 18/15 A2995 RMK A01 T01830148  RH  083%=      5-min Rain = 0
KFVS 250855Z 19010KT 18/15 A2995 RMK A01 T01830148  RH  084%=      5-min Rain = 0
KFVS 250900Z 19010KT 18/15 A2995 RMK A01 T01820147  RH  084%=      5-min Rain = 0
KFVS 250905Z 19010KT 18/15 A2995 RMK A01 T01820147  RH  084%=      5-min Rain = 0
KFVS 250910Z 19009KT 18/15 A2995 RMK A01 T01820147  RH  084%=      5-min Rain = 0
KFVS 250915Z 19009KT 18/15 A2995 RMK A01 T01810147  RH  084%=      5-min Rain = 0
KFVS 250920Z 20009KT 18/15 A2995 RMK A01 T01810146  RH  084%=      5-min Rain = 0
KFVS 250925Z 20009KT 18/15 A2995 RMK A01 T01800146  RH  084%=      5-min Rain = 0
KFVS 250930Z 20009KT 18/15 A2995 RMK A01 T01800146  RH  084%=      5-min Rain = 0
KFVS 250935Z 20008KT 18/15 A2995 RMK A01 T01790145  RH  084%=      5-min Rain = 0
KFVS 250940Z 20007KT 18/14 A2995 RMK A01 T01780144  RH  084%=      5-min Rain = 0
KFVS 250945Z 19006KT 18/14 A2995 RMK A01 T01770143  RH  084%=      5-min Rain = 0
KFVS 250950Z 19006KT 18/14 A2996 RMK A01 T01760143  RH  084%=      5-min Rain = 0
KFVS 250955Z 19006KT 18/14 A2996 RMK A01 T01750142  RH  085%=      5-min Rain = 0
KFVS 251000Z 20006KT 17/14 A2996 RMK A01 T01740141  RH  085%=      5-min Rain = 0
KFVS 251005Z 20006KT 17/14 A2996 RMK A01 T01720141  RH  085%=      5-min Rain = 0
KFVS 251010Z 20007KT 17/14 A2996 RMK A01 T01720140  RH  085%=      5-min Rain = 0
KFVS 251015Z 20007KT 17/14 A2996 RMK A01 T01730139  RH  084%=      5-min Rain = 0
KFVS 251020Z 21007KT 17/14 A2996 RMK A01 T01720139  RH  084%=      5-min Rain = 0
KFVS 251025Z 21007KT 17/14 A2996 RMK A01 T01710138  RH  084%=      5-min Rain = 0
KFVS 251030Z 21008KT 17/14 A2996 RMK A01 T01710137  RH  084%=      5-min Rain = 0
KFVS 251035Z 22008KT 17/14 A2996 RMK A01 T01710137  RH  084%=      5-min Rain = 0
KFVS 251040Z 22008KT 17/14 A2996 RMK A01 T01720137  RH  083%=      5-min Rain = 0
KFVS 251045Z 22008KT 17/14 A2996 RMK A01 T01730136  RH  083%=      5-min Rain = 0
KFVS 251050Z 21008KT 17/14 A2996 RMK A01 T01730136  RH  083%=      5-min Rain = 0
KFVS 251055Z 21008KT 17/14 A2997 RMK A01 T01720137  RH  083%=      5-min Rain = 0
KFVS 251100Z 21007KT 17/14 A2997 RMK A01 T01730137  RH  083%=      5-min Rain = 0
KFVS 251105Z 21007KT 17/14 A2997 RMK A01 T01740137  RH  083%=      5-min Rain = 0
KFVS 251110Z 21007KT 18/14 A2997 RMK A01 T01750138  RH  082%=      5-min Rain = 0
KFVS 251115Z 21007KT 17/14 A2998 RMK A01 T01730137  RH  083%=      5-min Rain = 0
KFVS 251120Z 21008KT 17/14 A2998 RMK A01 T01720137  RH  084%=      5-min Rain = 0
KFVS 251125Z 21009KT 17/14 A2997 RMK A01 T01710137  RH  084%=      5-min Rain = 0
KFVS 251130Z 22011KT 17/14 A2998 RMK A01 T01730138  RH  083%=      5-min Rain = 0
KFVS 251135Z 22010KT 17/14 A2998 RMK A01 T01740138  RH  083%=      5-min Rain = 0
KFVS 251140Z 21009KT 18/14 A2998 RMK A01 T01750139  RH  083%=      5-min Rain = 0
KFVS 251145Z 21009KT 18/14 A2998 RMK A01 T01760139  RH  082%=      5-min Rain = 0
KFVS 251150Z 21008KT 18/14 A2999 RMK A01 T01770139  RH  082%=      5-min Rain = 0
KFVS 251155Z 21008KT 18/14 A2999 RMK A01 T01770140  RH  082%=      5-min Rain = 0
KFVS 251200Z 21008KT 18/14 A2999 RMK A01 T01770140  RH  082%=      5-min Rain = 0
KFVS 251205Z 21008KT 18/14 A2999 RMK A01 T01770140  RH  082%=      5-min Rain = 0
KFVS 251210Z 21008KT 18/14 A2999 RMK A01 T01780140  RH  082%=      5-min Rain = 0
KFVS 251215Z 21008KT 18/14 A2999 RMK A01 T01800141  RH  082%=      5-min Rain = 0
KFVS 251220Z 21008KT 18/14 A2999 RMK A01 T01820141  RH  081%=      5-min Rain = 0
KFVS 251225Z 21009KT 18/14 A2999 RMK A01 T01840142  RH  080%=      5-min Rain = 0
KFVS 251230Z 21008KT 19/14 A2999 RMK A01 T01860143  RH  079%=      5-min Rain = 0
KFVS 251235Z 22008KT 19/14 A2999 RMK A01 T01870144  RH  079%=      5-min Rain = 0
KFVS 251240Z 22009KT 19/15 A2999 RMK A01 T01890145  RH  079%=      5-min Rain = 0
KFVS 251245Z 22009KT 19/14 A2999 RMK A01 T01910144  RH  078%=      5-min Rain = 0
KFVS 251250Z 22009KT 19/15 A2999 RMK A01 T01940145  RH  077%=      5-min Rain = 0
KFVS 251255Z 22009KT 20/15 A2999 RMK A01 T01950146  RH  076%=      5-min Rain = 0
KFVS 251300Z 22009KT 20/15 A2999 RMK A01 T01970146  RH  075%=      5-min Rain = 0
KFVS 251305Z 22008KT 20/15 A2999 RMK A01 T01990146  RH  075%=      5-min Rain = 0
KFVS 251310Z 22008KT 20/15 A2999 RMK A01 T02020146  RH  074%=      5-min Rain = 0
KFVS 251315Z 22008KT 20/15 A2999 RMK A01 T02030147  RH  073%=      5-min Rain = 0
KFVS 251320Z 22010KT 21/15 A30 RMK A01 T02050146  RH  072%=      5-min Rain = 0
KFVS 251325Z 22011KT 21/15 A30 RMK A01 T02080148  RH  072%=      5-min Rain = 0
KFVS 251330Z 22012KT 21/15 A30 RMK A01 T02090148  RH  071%=      5-min Rain = 0
KFVS 251335Z 22012KT 21/15 A30 RMK A01 T02110149  RH  071%=      5-min Rain = 0
KFVS 251340Z 22013KT 21/15 A30 RMK A01 T02130150  RH  070%=      5-min Rain = 0
KFVS 251345Z 23013KT 22/15 A30 RMK A01 T02150151  RH  070%=      5-min Rain = 0
KFVS 251350Z 22015KT 22/15 A30 RMK A01 T02170151  RH  069%=      5-min Rain = 0
KFVS 251355Z 23014G20KT 22/15 A30 RMK A01 T02180153  RH  070%=      5-min Rain = 0
KFVS 251400Z 23015KT 22/15 A30 RMK A01 T02210154  RH  069%=      5-min Rain = 0
KFVS 251405Z 23014KT 22/16 A3001 RMK A01 T02220155  RH  069%=      5-min Rain = 0
KFVS 251410Z 22016KT 22/16 A3001 RMK A01 T02230155  RH  069%=      5-min Rain = 0
KFVS 251415Z 22016KT 22/16 A3001 RMK A01 T02240156  RH  069%=      5-min Rain = 0
KFVS 251420Z 22014KT 23/16 A3001 RMK A01 T02260158  RH  069%=      5-min Rain = 0
KFVS 251425Z 23016G21KT 23/16 A3001 RMK A01 T02300160  RH  068%=      5-min Rain = 0
KFVS 251430Z 23017KT 23/16 A30 RMK A01 T02300159  RH  067%=      5-min Rain = 0
KFVS 251435Z 23017KT 23/16 A30 RMK A01 T02330162  RH  067%=      5-min Rain = 0
KFVS 251440Z 23016KT 24/16 A30 RMK A01 T02370164  RH  067%=      5-min Rain = 0
KFVS 251445Z 22013G19KT 24/17 A3001 RMK A01 T02420166  RH  066%=      5-min Rain = 0
KFVS 251450Z 22014G19KT 24/17 A3001 RMK A01 T02440167  RH  065%=      5-min Rain = 0
KFVS 251455Z 23014KT 25/17 A3001 RMK A01 T02480168  RH  064%=      5-min Rain = 0
KFVS 251500Z 23017KT 25/17 A3001 RMK A01 T02490165  RH  063%=      5-min Rain = 0
KFVS 251505Z 24015KT 25/17 A3001 RMK A01 T02510166  RH  062%=      5-min Rain = 0
KFVS 251510Z 23015KT 25/17 A3001 RMK A01 T02520166  RH  062%=      5-min Rain = 0
KFVS 251515Z 23014KT 25/17 A3001 RMK A01 T02540166  RH  061%=      5-min Rain = 0
KFVS 251520Z 23013G18KT 26/17 A3001 RMK A01 T02570166  RH  060%=      5-min Rain = 0
KFVS 251525Z 23014KT 26/16 A3001 RMK A01 T02570164  RH  059%=      5-min Rain = 0
KFVS 251530Z 23013KT 26/16 A3001 RMK A01 T02580164  RH  059%=      5-min Rain = 0
KFVS 251535Z 24011KT 26/17 A3001 RMK A01 T02620165  RH  058%=      5-min Rain = 0
KFVS 251540Z 23012KT 26/16 A3001 RMK A01 T02630164  RH  057%=      5-min Rain = 0
KFVS 251545Z 24011KT 27/17 A3001 RMK A01 T02650166  RH  057%=      5-min Rain = 0
KFVS 251550Z 23011KT 27/17 A3001 RMK A01 T02690165  RH  056%=      5-min Rain = 0
KFVS 251555Z 23011KT 27/17 A3001 RMK A01 T02670165  RH  056%=      5-min Rain = 0
KFVS 251600Z 24012KT 27/17 A3002 RMK A01 T02680165  RH  056%=      5-min Rain = 0
KFVS 251605Z 23009KT 27/17 A3002 RMK A01 T02690167  RH  056%=      5-min Rain = 0
KFVS 251610Z 25007KT 27/17 A3002 RMK A01 T02690167  RH  056%=      5-min Rain = 0
KFVS 251615Z 23007KT 27/17 A3002 RMK A01 T02730169  RH  056%=      5-min Rain = 0
KFVS 251620Z 22007KT 28/17 A3002 RMK A01 T02750168  RH  055%=      5-min Rain = 0
KFVS 251625Z 20004G10KT 27/17 A3002 RMK A01 T02730166  RH  055%=      5-min Rain = 0
KFVS 251630Z 21006G11KT 28/17 A3002 RMK A01 T02770168  RH  054%=      5-min Rain = 0
KFVS 251635Z 20006KT 28/17 A3002 RMK A01 T02810166  RH  052%=      5-min Rain = 0
KFVS 251640Z 23006KT 28/17 A3002 RMK A01 T02780165  RH  053%=      5-min Rain = 0
KFVS 251645Z 21005KT 28/17 A3002 RMK A01 T02790165  RH  052%=      5-min Rain = 0
KFVS 251650Z 21006KT 28/17 A3002 RMK A01 T02830166  RH  052%=      5-min Rain = 0
KFVS 251655Z 23006KT 29/17 A3002 RMK A01 T02850166  RH  051%=      5-min Rain = 0
KFVS 251700Z 18007KT 29/17 A3002 RMK A01 T02890167  RH  050%=      5-min Rain = 0
KFVS 251705Z 19007G12KT 29/17 A3002 RMK A01 T02890166  RH  050%=      5-min Rain = 0
KFVS 251710Z 18006G11KT 29/17 A3002 RMK A01 T02890166  RH  050%=      5-min Rain = 0
KFVS 251715Z 20008KT 29/17 A3002 RMK A01 T02940166  RH  048%=      5-min Rain = 0
KFVS 251720Z 18008KT 30/17 A3002 RMK A01 T02960165  RH  047%=      5-min Rain = 0
KFVS 251725Z 18009KT 30/16 A3002 RMK A01 T03010164  RH  046%=      5-min Rain = 0
KFVS 251730Z 18008KT 30/16 A3002 RMK A01 T02980163  RH  046%=      5-min Rain = 0
KFVS 251735Z 19009KT 30/16 A3002 RMK A01 T02980161  RH  046%=      5-min Rain = 0
KFVS 251740Z 20008G14KT 30/16 A3002 RMK A01 T03000164  RH  046%=      5-min Rain = 0
KFVS 251745Z 18011G16KT 31/16 A3002 RMK A01 T03070164  RH  044%=      5-min Rain = 0
KFVS 251750Z 18009KT 31/16 A3002 RMK A01 T03070163  RH  044%=      5-min Rain = 0
KFVS 251755Z 14009KT 31/17 A3002 RMK A01 T03080166  RH  045%=      5-min Rain = 0
KFVS 251800Z 15013G20KT 31/17 A3001 RMK A01 T03090169  RH  045%=      5-min Rain = 0
KFVS 251805Z 14009G14KT 31/17 A3002 RMK A01 T03070171  RH  047%=      5-min Rain = 0
KFVS 251810Z 16014G20KT 31/17 A3002 RMK A01 T03080171  RH  046%=      5-min Rain = 0
KFVS 251815Z 14013KT 31/17 A3002 RMK A01 T03050170  RH  046%=      5-min Rain = 0
KFVS 251820Z 15012KT 31/17 A3002 RMK A01 T03070170  RH  046%=      5-min Rain = 0
KFVS 251825Z 17013G19KT 31/17 A3002 RMK A01 T03100166  RH  044%=      5-min Rain = 0
KFVS 251830Z 14013KT 31/17 A3002 RMK A01 T03090165  RH  044%=      5-min Rain = 0
KFVS 251835Z 15012G19KT 31/17 A3001 RMK A01 T03110168  RH  045%=      5-min Rain = 0
KFVS 251840Z 14013G18KT 31/17 A3001 RMK A01 T03080168  RH  045%=      5-min Rain = 0
KFVS 251845Z 13011G17KT 31/17 A3001 RMK A01 T03110168  RH  044%=      5-min Rain = 0
KFVS 251850Z 15011G16KT 32/17 A3001 RMK A01 T03150168  RH  043%=      5-min Rain = 0
KFVS 251855Z 15011KT 32/17 A3001 RMK A01 T03150165  RH  043%=      5-min Rain = 0
KFVS 251900Z 13013G19KT 31/16 A3001 RMK A01 T03120164  RH  043%=      5-min Rain = 0
KFVS 251905Z 14012G19KT 31/16 A3001 RMK A01 T03120163  RH  043%=      5-min Rain = 0
KFVS 251910Z 14013KT 31/16 A3001 RMK A01 T03140164  RH  043%=      5-min Rain = 0
KFVS 251915Z 15010G17KT 32/17 A3001 RMK A01 T03190165  RH  042%=      5-min Rain = 0
KFVS 251920Z 13011G20KT 32/17 A30 RMK A01 T03170167  RH  043%=      5-min Rain = 0
KFVS 251925Z 15013G19KT 32/17 A30 RMK A01 T03170166  RH  042%=      5-min Rain = 0
KFVS 251930Z 13009G14KT 32/16 A30 RMK A01 T03170164  RH  042%=      5-min Rain = 0
KFVS 251935Z 14011KT 32/17 A30 RMK A01 T03210166  RH  041%=      5-min Rain = 0
KFVS 251940Z 15014KT 32/17 A30 RMK A01 T03210166  RH  041%=      5-min Rain = 0
KFVS 251945Z 15009G14KT 32/16 A30 RMK A01 T03180163  RH  041%=      5-min Rain = 0
KFVS 251950Z 13013KT 32/17 A30 RMK A01 T03180169  RH  043%=      5-min Rain = 0
KFVS 251955Z 14012G17KT 32/17 A30 RMK A01 T03230168  RH  041%=      5-min Rain = 0
KFVS 252000Z 13009G15KT 32/17 A2999 RMK A01 T03180167  RH  042%=      5-min Rain = 0
KFVS 252005Z 13012G18KT 32/17 A2999 RMK A01 T03160166  RH  043%=      5-min Rain = 0
KFVS 252010Z 15012KT 32/17 A2999 RMK A01 T03180165  RH  042%=      5-min Rain = 0
KFVS 252015Z 14012G17KT 32/16 A2999 RMK A01 T03200164  RH  041%=      5-min Rain = 0
KFVS 252020Z 15012G18KT 32/16 A2999 RMK A01 T03200164  RH  041%=      5-min Rain = 0
KFVS 252025Z 15014KT 32/17 A2999 RMK A01 T03210166  RH  041%=      5-min Rain = 0
KFVS 252030Z 13011G16KT 32/16 A2999 RMK A01 T03150163  RH  042%=      5-min Rain = 0
KFVS 252035Z 13010G18KT 32/17 A2999 RMK A01 T03150165  RH  043%=      5-min Rain = 0
KFVS 252040Z 14011G18KT 32/16 A2999 RMK A01 T03190164  RH  041%=      5-min Rain = 0
KFVS 252045Z 14012G17KT 32/16 A2999 RMK A01 T03190159  RH  040%=      5-min Rain = 0
KFVS 252050Z 14012G21KT 32/16 A2999 RMK A01 T03220163  RH  041%=      5-min Rain = 0
KFVS 252055Z 14013KT 32/16 A2999 RMK A01 T03220162  RH  040%=      5-min Rain = 0
KFVS 252100Z 14013KT 32/16 A2998 RMK A01 T03190161  RH  041%=      5-min Rain = 0
KFVS 252105Z 13012G18KT 32/16 A2998 RMK A01 T03180160  RH  041%=      5-min Rain = 0
KFVS 252110Z 14012G17KT 32/16 A2998 RMK A01 T03220161  RH  040%=      5-min Rain = 0
KFVS 252115Z 12012KT 32/16 A2998 RMK A01 T03160158  RH  040%=      5-min Rain = 0
KFVS 252120Z 14011KT 32/16 A2998 RMK A01 T03160159  RH  040%=      5-min Rain = 0
KFVS 252125Z 13012G17KT 32/16 A2998 RMK A01 T03180160  RH  041%=      5-min Rain = 0
KFVS 252130Z 14011KT 32/16 A2998 RMK A01 T03180161  RH  041%=      5-min Rain = 0
KFVS 252135Z 13010G15KT 32/16 A2997 RMK A01 T03180162  RH  041%=      5-min Rain = 0
KFVS 252140Z 14010KT 32/16 A2997 RMK A01 T03200162  RH  040%=      5-min Rain = 0
KFVS 252145Z 13012G17KT 32/16 A2997 RMK A01 T03200162  RH  041%=      5-min Rain = 0
KFVS 252150Z 13011KT 32/16 A2997 RMK A01 T03220163  RH  040%=      5-min Rain = 0
KFVS 252155Z 13012KT 32/16 A2997 RMK A01 T03200161  RH  040%=      5-min Rain = 0
KFVS 252200Z 16011G17KT 32/16 A2997 RMK A01 T03230158  RH  039%=      5-min Rain = 0
KFVS 252205Z 15011KT 32/16 A2997 RMK A01 T03240159  RH  039%=      5-min Rain = 0
KFVS 252210Z 14012G19KT 32/16 A2997 RMK A01 T03210161  RH  040%=      5-min Rain = 0
KFVS 252215Z 14012G18KT 32/16 A2997 RMK A01 T03190161  RH  040%=      5-min Rain = 0
KFVS 252220Z 14014G20KT 32/16 A2996 RMK A01 T03210160  RH  040%=      5-min Rain = 0
KFVS 252225Z 16012G18KT 32/16 A2996 RMK A01 T03230161  RH  040%=      5-min Rain = 0
KFVS 252230Z 15013KT 32/16 A2996 RMK A01 T03220159  RH  039%=      5-min Rain = 0
KFVS 252235Z 16011G16KT 32/15 A2996 RMK A01 T03230152  RH  037%=      5-min Rain = 0
KFVS 252240Z 16012KT 32/15 A2996 RMK A01 T03210154  RH  038%=      5-min Rain = 0
KFVS 252245Z 15012KT 32/15 A2996 RMK A01 T03210154  RH  038%=      5-min Rain = 0
KFVS 252250Z 14012KT 32/16 A2996 RMK A01 T03220157  RH  039%=      5-min Rain = 0
KFVS 252255Z 13012G17KT 32/16 A2996 RMK A01 T03190155  RH  039%=      5-min Rain = 0
KFVS 252300Z 14013G21KT 32/15 A2995 RMK A01 T03200151  RH  038%=      5-min Rain = 0
KFVS 252305Z 13014G19KT 32/15 A2995 RMK A01 T03180152  RH  038%=      5-min Rain = 0
KFVS 252310Z 15013G18KT 32/15 A2995 RMK A01 T03170153  RH  039%=      5-min Rain = 0
KFVS 252315Z 15015KT 32/15 A2995 RMK A01 T03170153  RH  039%=      5-min Rain = 0
KFVS 252320Z 14014KT 32/16 A2995 RMK A01 T03170155  RH  040%=      5-min Rain = 0
KFVS 252325Z 14013G21KT 32/16 A2995 RMK A01 T03170158  RH  040%=      5-min Rain = 0
KFVS 252330Z 15014KT 32/15 A2995 RMK A01 T03160153  RH  039%=      5-min Rain = 0
KFVS 252335Z 15013G18KT 32/15 A2995 RMK A01 T03170153  RH  039%=      5-min Rain = 0
KFVS 252340Z 14015KT 31/16 A2994 RMK A01 T03130155  RH  040%=      5-min Rain = 0
KFVS 252345Z 15014G24KT 31/16 A2994 RMK A01 T03130155  RH  040%=      5-min Rain = 0
KFVS 252350Z 14015KT 31/15 A2994 RMK A01 T03120154  RH  040%=      5-min Rain = 0
KFVS 252355Z 15015G20KT 31/15 A2994 RMK A01 T03120154  RH  040%=      5-min Rain = 0
KFVS 260000Z 14015KT 31/15 A2994 RMK A01 T03130153  RH  040%=      5-min Rain = 0
KFVS 260005Z 15014G21KT 31/15 A2994 RMK A01 T03120152  RH  040%=      5-min Rain = 0
KFVS 260010Z 15017G22KT 31/15 A2994 RMK A01 T03100149  RH  039%=      5-min Rain = 0
KFVS 260015Z 14016G22KT 31/15 A2994 RMK A01 T03090151  RH  040%=      5-min Rain = 0
KFVS 260020Z 14015G20KT 31/16 A2994 RMK A01 T03080155  RH  042%=      5-min Rain = 0
KFVS 260025Z 15016G22KT 31/15 A2994 RMK A01 T03080154  RH  041%=      5-min Rain = 0
KFVS 260030Z 15019G24KT 31/15 A2994 RMK A01 T03050154  RH  042%=      5-min Rain = 0
KFVS 260035Z 15017G23KT 30/15 A2994 RMK A01 T03040154  RH  042%=      5-min Rain = 0
KFVS 260040Z 15017G22KT 30/15 A2994 RMK A01 T03030152  RH  042%=      5-min Rain = 0
KFVS 260045Z 15017G23KT 30/15 A2994 RMK A01 T03010151  RH  042%=      5-min Rain = 0
KFVS 260050Z 15017G22KT 30/15 A2995 RMK A01 T02990150  RH  042%=      5-min Rain = 0
KFVS 260055Z 15016G22KT 30/15 A2995 RMK A01 T02980150  RH  043%=      5-min Rain = 0
KFVS 260100Z 15016G22KT 30/15 A2996 RMK A01 T02960151  RH  043%=      5-min Rain = 0
KFVS 260105Z 15016G22KT 29/16 A2996 RMK A01 T02940155  RH  045%=      5-min Rain = 0
KFVS 260110Z 15015G20KT 29/16 A2996 RMK A01 T02930157  RH  046%=      5-min Rain = 0
KFVS 260115Z 15016G21KT 29/15 A2997 RMK A01 T02920153  RH  045%=      5-min Rain = 0
KFVS 260120Z 15015G20KT 29/15 A2997 RMK A01 T02900150  RH  044%=      5-min Rain = 0
KFVS 260125Z 15015KT 29/15 A2997 RMK A01 T02880151  RH  045%=      5-min Rain = 0
KFVS 260130Z 15015KT 29/15 A2998 RMK A01 T02860152  RH  046%=      5-min Rain = 0
KFVS 260135Z 15015KT 29/16 A2998 RMK A01 T02850156  RH  048%=      5-min Rain = 0
KFVS 260140Z 14015KT 28/16 A2998 RMK A01 T02830160  RH  050%=      5-min Rain = 0
KFVS 260145Z 14014G20KT 28/16 A2998 RMK A01 T02810158  RH  049%=      5-min Rain = 0
KFVS 260150Z 14015G22KT 28/16 A2998 RMK A01 T02800156  RH  049%=      5-min Rain = 0
KFVS 260155Z 14014KT 28/16 A2999 RMK A01 T02790156  RH  049%=      5-min Rain = 0
KFVS 260200Z 14013KT 28/16 A2999 RMK A01 T02770157  RH  050%=      5-min Rain = 0
KFVS 260205Z 14014KT 28/16 A2999 RMK A01 T02760159  RH  051%=      5-min Rain = 0
KFVS 260210Z 14014KT 28/16 A2999 RMK A01 T02750160  RH  052%=      5-min Rain = 0
KFVS 260215Z 14014G19KT 27/16 A2999 RMK A01 T02740160  RH  052%=      5-min Rain = 0
KFVS 260220Z 14013KT 27/16 A2999 RMK A01 T02730161  RH  053%=      5-min Rain = 0
KFVS 260225Z 14014G19KT 27/16 A2999 RMK A01 T02720163  RH  054%=      5-min Rain = 0
KFVS 260230Z 14013KT 27/16 A2999 RMK A01 T02700163  RH  055%=      5-min Rain = 0
KFVS 260235Z 14012KT 27/16 A2999 RMK A01 T02680164  RH  055%=      5-min Rain = 0
KFVS 260240Z 15013G19KT 27/17 A2999 RMK A01 T02670165  RH  056%=      5-min Rain = 0
KFVS 260245Z 15013KT 27/17 A2999 RMK A01 T02660167  RH  057%=      5-min Rain = 0
KFVS 260250Z 14012KT 26/17 A30 RMK A01 T02640168  RH  058%=      5-min Rain = 0
KFVS 260255Z 14012KT 26/17 A30 RMK A01 T02620169  RH  059%=      5-min Rain = 0
KFVS 260300Z 14013KT 26/17 A3001 RMK A01 T02620170  RH  060%=      5-min Rain = 0
KFVS 260305Z 13012KT 26/17 A3001 RMK A01 T02630170  RH  059%=      5-min Rain = 0
KFVS 260310Z 14012KT 26/17 A3002 RMK A01 T02620170  RH  060%=      5-min Rain = 0
KFVS 260315Z 13012KT 26/17 A3002 RMK A01 T02610170  RH  060%=      5-min Rain = 0
KFVS 260320Z 13012KT 26/17 A3003 RMK A01 T02600170  RH  060%=      5-min Rain = 0
KFVS 260325Z 13011KT 26/17 A3003 RMK A01 T02590169  RH  061%=      5-min Rain = 0
KFVS 260330Z 13012KT 26/17 A3004 RMK A01 T02580170  RH  061%=      5-min Rain = 0
KFVS 260335Z 12012G17KT 26/17 A3005 RMK A01 T02580171  RH  062%=      5-min Rain = 0
KFVS 260340Z 12012KT 26/17 A3005 RMK A01 T02560171  RH  062%=      5-min Rain = 0
KFVS 260345Z 13012KT 26/17 A3006 RMK A01 T02570170  RH  062%=      5-min Rain = 0
KFVS 260350Z 13013G19KT 26/17 A3006 RMK A01 T02570170  RH  061%=      5-min Rain = 0
KFVS 260355Z 13012G17KT 26/17 A3006 RMK A01 T02580169  RH  061%=      5-min Rain = 0
KFVS 260400Z 13012G18KT 26/17 A3006 RMK A01 T02560168  RH  061%=      5-min Rain = 0
KFVS 260405Z 13013G18KT 26/17 A3006 RMK A01 T02570166  RH  060%=      5-min Rain = 0
KFVS 260410Z 13013KT 26/17 A3006 RMK A01 T02550166  RH  061%=      5-min Rain = 0
KFVS 260415Z 13012KT 25/17 A3006 RMK A01 T02540165  RH  061%=      5-min Rain = 0
KFVS 260420Z 13012KT 25/16 A3006 RMK A01 T02530164  RH  061%=      5-min Rain = 0
KFVS 260425Z 13011KT 25/16 A3006 RMK A01 T02520163  RH  061%=      5-min Rain = 0
KFVS 260430Z 12011KT 25/16 A3006 RMK A01 T02510162  RH  060%=      5-min Rain = 0
KFVS 260435Z 12011KT 25/16 A3006 RMK A01 T02500160  RH  060%=      5-min Rain = 0
KFVS 260440Z 12010KT 25/16 A3006 RMK A01 T02480159  RH  060%=      5-min Rain = 0
KFVS 260445Z 11010KT 24/16 A3007 RMK A01 T02440160  RH  062%=      5-min Rain = 0
KFVS 260450Z 11010KT 24/16 A3007 RMK A01 T02410161  RH  064%=      5-min Rain = 0
KFVS 260455Z 11010KT 24/16 A3008 RMK A01 T02410159  RH  063%=      5-min Rain = 0

Page generated in 0.0158 seconds.